createdAt,value
2022-08-10T00:00:13.430Z,23.20
2022-08-10T00:02:40.536Z,22.80
2022-08-10T00:05:07.726Z,23.50
2022-08-10T00:07:35.036Z,22.90
2022-08-10T00:10:02.174Z,22.80
2022-08-10T00:12:53.374Z,23.20
2022-08-10T00:15:52.919Z,22.80
2022-08-10T00:18:04.986Z,23.20
2022-08-10T00:20:32.178Z,23.00
2022-08-10T00:22:59.326Z,22.90
2022-08-10T00:25:26.414Z,22.50
2022-08-10T00:28:03.146Z,22.70
2022-08-10T00:30:31.183Z,22.90
2022-08-10T00:32:58.343Z,23.00
2022-08-10T00:35:25.446Z,22.80
2022-08-10T00:37:57.646Z,22.70
2022-08-10T00:40:35.432Z,22.30
2022-08-10T00:43:05.814Z,22.20
2022-08-10T00:45:33.255Z,22.30
2022-08-10T00:48:00.358Z,22.40
2022-08-10T00:50:27.685Z,22.10
2022-08-10T00:52:54.809Z,22.60
2022-08-10T00:55:21.933Z,22.30
2022-08-10T00:57:54.797Z,21.90
2022-08-10T01:00:23.454Z,21.90
2022-08-10T01:03:02.178Z,21.90
2022-08-10T01:06:29.843Z,21.90
2022-08-10T01:09:14.488Z,22.00
2022-08-10T01:12:39.042Z,21.80
2022-08-10T01:14:40.781Z,22.30
2022-08-10T01:17:11.759Z,22.60
2022-08-10T01:19:58.407Z,22.50
2022-08-10T01:22:32.433Z,22.00
2022-08-10T01:25:11.190Z,21.90
2022-08-10T01:27:41.446Z,22.00
2022-08-10T01:30:08.940Z,21.60
2022-08-10T01:32:37.831Z,21.90
2022-08-10T01:35:10.752Z,21.80
2022-08-10T01:37:39.200Z,22.20
2022-08-10T01:40:06.872Z,22.30
2022-08-10T01:42:34.161Z,22.30
2022-08-10T01:45:03.431Z,22.20
2022-08-10T01:47:51.261Z,22.10
2022-08-10T01:50:22.899Z,22.20
2022-08-10T01:52:51.254Z,21.80
2022-08-10T01:55:18.499Z,22.00
2022-08-10T01:57:45.674Z,22.00
2022-08-10T02:00:13.533Z,22.30
2022-08-10T02:02:40.778Z,22.20
2022-08-10T02:05:08.023Z,22.20
2022-08-10T02:07:36.355Z,21.60
2022-08-10T02:10:06.885Z,21.40
2022-08-10T02:12:34.303Z,21.50
2022-08-10T02:15:09.178Z,21.60
2022-08-10T02:17:58.664Z,21.40
2022-08-10T02:20:25.383Z,21.70
2022-08-10T02:22:53.399Z,21.70
2022-08-10T02:25:40.648Z,21.90
2022-08-10T02:28:07.873Z,21.70
2022-08-10T02:30:35.037Z,21.40
2022-08-10T02:33:02.154Z,21.80
2022-08-10T02:35:29.262Z,21.30
2022-08-10T02:38:12.124Z,21.80
2022-08-10T02:45:00.914Z,21.60
2022-08-10T02:45:17.700Z,21.10
2022-08-10T02:46:42.042Z,21.40
2022-08-10T02:49:13.825Z,21.00
2022-08-10T02:52:06.782Z,21.20
2022-08-10T02:54:37.136Z,20.70
2022-08-10T02:57:18.280Z,20.60
2022-08-10T02:59:49.383Z,20.80
2022-08-10T03:02:19.743Z,20.80
2022-08-10T03:04:55.215Z,20.50
2022-08-10T03:07:42.950Z,20.90
2022-08-10T03:10:30.887Z,21.20
2022-08-10T03:13:04.063Z,20.90
2022-08-10T03:15:31.609Z,21.00
2022-08-10T03:17:59.305Z,20.80
2022-08-10T03:20:55.585Z,20.60
2022-08-10T03:23:23.737Z,21.10
2022-08-10T03:25:55.137Z,20.60
2022-08-10T03:28:43.785Z,20.60
2022-08-10T03:31:42.857Z,20.50
2022-08-10T03:34:32.516Z,20.70
2022-08-10T03:36:57.099Z,20.30
2022-08-10T03:39:24.769Z,20.40
2022-08-10T03:41:55.935Z,20.30
2022-08-10T03:44:27.909Z,20.40
2022-08-10T03:46:55.014Z,20.30
2022-08-10T03:49:22.125Z,20.20
2022-08-10T03:51:51.299Z,20.00
2022-08-10T03:54:18.646Z,20.10
2022-08-10T03:56:45.824Z,20.10
2022-08-10T03:59:13.490Z,20.10
2022-08-10T04:02:44.710Z,19.90
2022-08-10T04:04:28.505Z,19.80
2022-08-10T04:06:57.086Z,19.80
2022-08-10T04:09:29.751Z,19.90
2022-08-10T04:12:15.846Z,19.80
2022-08-10T04:14:50.090Z,19.90
2022-08-10T04:17:56.728Z,20.00
2022-08-10T04:20:17.498Z,20.10
2022-08-10T04:22:44.932Z,20.00
2022-08-10T04:25:12.069Z,19.70
2022-08-10T04:27:39.171Z,19.80
2022-08-10T04:30:06.609Z,19.60
2022-08-10T04:32:34.280Z,19.70
2022-08-10T04:35:01.573Z,19.70
2022-08-10T04:37:28.679Z,19.80
2022-08-10T04:39:55.812Z,19.60
2022-08-10T04:42:22.911Z,19.60
2022-08-10T04:44:50.021Z,19.50
2022-08-10T04:47:17.119Z,19.80
2022-08-10T04:50:04.443Z,19.80
2022-08-10T04:52:32.233Z,19.60
2022-08-10T04:54:59.468Z,19.80
2022-08-10T04:57:27.015Z,19.80
2022-08-10T04:59:54.137Z,19.60
2022-08-10T05:02:31.339Z,19.70
2022-08-10T05:04:59.039Z,19.90
2022-08-10T05:07:26.204Z,20.00
2022-08-10T05:10:02.605Z,20.40
2022-08-10T05:12:37.725Z,20.20
2022-08-10T05:15:06.253Z,20.40
2022-08-10T05:17:34.485Z,20.90
2022-08-10T05:20:06.492Z,20.70
2022-08-10T05:22:35.561Z,20.50
2022-08-10T05:25:03.291Z,20.70
2022-08-10T05:27:30.429Z,20.80
2022-08-10T05:30:02.443Z,20.80
2022-08-10T05:32:31.076Z,20.90
2022-08-10T05:34:58.287Z,20.70
2022-08-10T05:38:09.891Z,20.90
2022-08-10T05:40:12.766Z,21.00
2022-08-10T05:42:40.878Z,21.00
2022-08-10T05:45:11.320Z,21.50
2022-08-10T05:48:55.248Z,21.20
2022-08-10T05:50:32.472Z,21.40
2022-08-10T05:53:03.757Z,21.30
2022-08-10T05:55:46.678Z,21.40
2022-08-10T05:58:13.775Z,21.50
2022-08-10T06:00:46.009Z,21.60
2022-08-10T06:03:17.418Z,21.80
2022-08-10T06:05:51.122Z,21.70
2022-08-10T06:08:19.664Z,21.80
2022-08-10T06:12:21.659Z,22.30
2022-08-10T06:14:15.802Z,22.10
2022-08-10T06:16:43.790Z,22.20
2022-08-10T06:19:14.953Z,22.40
2022-08-10T06:21:53.623Z,22.50
2022-08-10T06:24:30.217Z,22.50
2022-08-10T06:26:58.599Z,22.70
2022-08-10T06:29:25.721Z,22.70
2022-08-10T06:31:52.855Z,22.80
2022-08-10T06:34:24.695Z,22.80
2022-08-10T06:36:52.885Z,22.90
2022-08-10T06:39:36.623Z,23.10
2022-08-10T06:42:15.203Z,23.10
2022-08-10T06:45:04.540Z,23.10
2022-08-10T06:47:37.580Z,23.30
2022-08-10T06:50:10.595Z,23.60
2022-08-10T06:52:37.955Z,23.60
2022-08-10T06:55:08.551Z,23.70
2022-08-10T06:57:36.506Z,23.60
2022-08-10T07:00:04.518Z,23.70
2022-08-10T07:02:46.206Z,23.80
2022-08-10T07:05:18.295Z,23.90
2022-08-10T07:07:45.928Z,23.80
2022-08-10T07:10:13.055Z,24.10
2022-08-10T07:12:40.185Z,24.10
2022-08-10T07:15:07.615Z,24.50
2022-08-10T07:17:39.099Z,24.40
2022-08-10T07:20:09.419Z,24.90
2022-08-10T07:23:11.095Z,24.70
2022-08-10T07:25:25.468Z,25.20
2022-08-10T07:27:59.596Z,25.50
2022-08-10T07:30:33.034Z,25.40
2022-08-10T07:33:00.716Z,25.30
2022-08-10T07:35:31.894Z,25.50
2022-08-10T07:38:05.040Z,26.60
2022-08-10T07:40:32.356Z,28.70
2022-08-10T07:42:59.889Z,28.70
2022-08-10T07:45:31.710Z,28.90
2022-08-10T07:48:05.087Z,29.60
2022-08-10T07:50:36.215Z,28.70
2022-08-10T07:53:04.557Z,29.90
2022-08-10T07:56:03.711Z,30.00
2022-08-10T07:58:19.062Z,30.70
2022-08-10T08:00:46.207Z,30.30
2022-08-10T08:03:14.963Z,31.40
2022-08-10T08:05:58.514Z,31.40
2022-08-10T08:08:29.195Z,32.20
2022-08-10T08:10:57.950Z,30.40
2022-08-10T08:13:25.148Z,31.50
2022-08-10T08:16:16.951Z,31.60
2022-08-10T08:24:05.725Z,30.60
2022-08-10T08:24:59.900Z,30.30
2022-08-10T08:27:27.871Z,31.50
2022-08-10T08:29:55.080Z,31.20
2022-08-10T08:32:23.655Z,31.00
2022-08-10T08:34:54.707Z,30.50
2022-08-10T08:38:32.248Z,31.20
2022-08-10T08:40:27.674Z,31.40
2022-08-10T08:50:17.278Z,30.20
2022-08-10T08:56:17.052Z,30.40
2022-08-10T08:59:18.047Z,28.80
2022-08-10T09:02:31.995Z,29.60
2022-08-10T09:05:04.461Z,30.70
2022-08-10T09:11:29.019Z,28.90
2022-08-10T09:14:05.778Z,29.70
2022-08-10T09:16:47.977Z,29.10
2022-08-10T09:19:19.603Z,29.10
2022-08-10T09:22:17.585Z,30.20
2022-08-10T09:24:50.296Z,29.90
2022-08-10T09:27:21.641Z,29.40
2022-08-10T09:29:55.425Z,29.80
2022-08-10T09:36:16.527Z,29.60
2022-08-10T09:36:20.579Z,29.30
2022-08-10T09:38:22.790Z,29.40
2022-08-10T09:41:00.449Z,29.90
2022-08-10T09:43:29.509Z,30.00
2022-08-10T09:46:06.613Z,30.30
2022-08-10T09:48:41.844Z,29.50
2022-08-10T09:54:07.633Z,29.70
2022-08-10T09:57:07.006Z,29.70
2022-08-10T10:00:01.803Z,30.10
2022-08-10T10:02:49.185Z,30.10
2022-08-10T10:05:25.388Z,29.80
2022-08-10T10:07:55.803Z,29.70
2022-08-10T10:10:24.643Z,29.20
2022-08-10T10:13:12.026Z,29.10
2022-08-10T10:15:50.596Z,29.90
2022-08-10T10:18:30.039Z,30.00
2022-08-10T10:21:05.855Z,30.00
2022-08-10T10:23:37.972Z,30.00
2022-08-10T10:26:13.005Z,30.20
2022-08-10T10:31:38.087Z,30.00
2022-08-10T10:34:14.267Z,30.20
2022-08-10T10:36:41.737Z,30.10
2022-08-10T10:39:08.884Z,30.00
2022-08-10T10:42:03.312Z,29.80
2022-08-10T10:44:53.404Z,29.90
2022-08-10T10:47:42.466Z,29.90
2022-08-10T10:50:41.975Z,29.50
2022-08-10T10:53:09.031Z,30.00
2022-08-10T10:56:13.466Z,30.50
2022-08-10T10:58:54.592Z,30.70
2022-08-10T11:01:21.762Z,30.50
2022-08-10T11:04:08.593Z,30.70
2022-08-10T11:14:26.710Z,31.00
2022-08-10T11:22:28.039Z,31.60
2022-08-10T11:24:57.548Z,31.70
2022-08-10T11:27:43.534Z,31.40
2022-08-10T11:30:13.975Z,31.10
2022-08-10T11:32:41.056Z,31.00
2022-08-10T11:35:55.357Z,31.20
2022-08-10T11:39:03.949Z,31.20
2022-08-10T11:42:40.057Z,31.20
2022-08-10T11:45:12.077Z,31.70
2022-08-10T11:47:42.206Z,31.60
2022-08-10T11:50:23.634Z,31.60
2022-08-10T11:52:57.726Z,31.90
2022-08-10T11:55:26.286Z,31.90
2022-08-10T11:57:55.876Z,32.00
2022-08-10T12:00:24.512Z,32.50
2022-08-10T12:03:02.387Z,32.70
2022-08-10T12:05:46.804Z,32.50
2022-08-10T12:10:06.568Z,32.10
2022-08-10T12:11:06.525Z,32.10
2022-08-10T12:13:53.807Z,31.60
2022-08-10T12:16:28.944Z,32.20
2022-08-10T12:19:15.342Z,32.20
2022-08-10T12:22:13.648Z,32.70
2022-08-10T12:24:59.279Z,32.00
2022-08-10T12:28:14.934Z,32.30
2022-08-10T12:30:50.630Z,31.50
2022-08-10T12:33:25.433Z,31.60
2022-08-10T12:36:21.078Z,32.40
2022-08-10T12:39:01.436Z,32.60
2022-08-10T12:42:01.403Z,32.70
2022-08-10T12:44:43.066Z,32.20
2022-08-10T12:47:15.006Z,32.30
2022-08-10T12:50:29.984Z,32.60
2022-08-10T12:52:31.694Z,33.10
2022-08-10T12:54:59.496Z,33.00
2022-08-10T12:57:26.615Z,33.40
2022-08-10T13:00:01.184Z,32.70
2022-08-10T13:02:28.905Z,33.40
2022-08-10T13:04:57.243Z,32.70
2022-08-10T13:08:03.706Z,32.60
2022-08-10T13:10:21.011Z,32.50
2022-08-10T13:12:49.546Z,32.80
2022-08-10T13:15:45.516Z,32.60
2022-08-10T13:18:06.933Z,32.50
2022-08-10T13:20:49.875Z,33.00
2022-08-10T13:23:17.807Z,33.00
2022-08-10T13:25:48.459Z,33.10
2022-08-10T13:28:35.581Z,32.80
2022-08-10T13:31:04.091Z,32.80
2022-08-10T13:34:39.817Z,32.70
2022-08-10T13:36:24.337Z,33.20
2022-08-10T13:38:51.506Z,33.00
2022-08-10T13:41:18.619Z,33.50
2022-08-10T13:43:50.083Z,33.30
2022-08-10T13:46:22.085Z,33.20
2022-08-10T13:48:53.686Z,32.90
2022-08-10T13:51:56.954Z,33.00
2022-08-10T13:54:11.997Z,32.90
2022-08-10T13:56:39.112Z,33.30
2022-08-10T13:59:09.849Z,33.40
2022-08-10T14:01:37.330Z,33.70
2022-08-10T14:04:06.532Z,33.90
2022-08-10T14:06:33.766Z,34.10
2022-08-10T14:09:09.326Z,34.40
2022-08-10T14:11:46.330Z,34.80
2022-08-10T14:14:20.967Z,34.00
2022-08-10T14:16:52.722Z,33.90
2022-08-10T14:19:51.483Z,33.60
2022-08-10T14:22:48.299Z,34.00
2022-08-10T14:25:48.667Z,33.80
2022-08-10T14:28:49.015Z,33.60
2022-08-10T14:36:22.309Z,33.50
2022-08-10T14:37:55.126Z,33.20
2022-08-10T14:40:51.465Z,33.10
2022-08-10T14:46:18.719Z,32.40
2022-08-10T14:48:48.604Z,33.30
2022-08-10T14:51:17.794Z,32.90
2022-08-10T14:54:01.635Z,32.80
2022-08-10T14:56:30.893Z,33.00
2022-08-10T14:59:05.730Z,33.40
2022-08-10T15:02:38.308Z,33.80
2022-08-10T15:04:22.863Z,34.40
2022-08-10T15:07:12.138Z,34.30
2022-08-10T15:09:59.727Z,34.20
2022-08-10T15:12:33.716Z,34.20
2022-08-10T15:15:01.237Z,33.60
2022-08-10T15:17:36.772Z,33.10
2022-08-10T15:20:20.884Z,33.40
2022-08-10T15:22:50.138Z,33.90
2022-08-10T15:25:25.042Z,33.80
2022-08-10T15:27:55.981Z,34.40
2022-08-10T15:30:29.653Z,33.70
2022-08-10T15:33:21.375Z,32.70
2022-08-10T15:36:22.810Z,32.70
2022-08-10T15:38:50.343Z,33.10
2022-08-10T15:41:59.085Z,33.00
2022-08-10T15:44:20.981Z,33.20
2022-08-10T15:47:02.314Z,33.10
2022-08-10T15:49:35.869Z,33.10
2022-08-10T15:52:04.333Z,33.40
2022-08-10T15:54:33.363Z,32.70
2022-08-10T15:57:03.278Z,33.40
2022-08-10T15:59:32.150Z,33.00
2022-08-10T16:02:04.034Z,32.80
2022-08-10T16:04:50.517Z,33.50
2022-08-10T16:07:46.313Z,33.00
2022-08-10T16:10:26.706Z,31.80
2022-08-10T16:13:00.607Z,31.60
2022-08-10T16:15:29.531Z,31.10
2022-08-10T16:18:00.796Z,31.10
2022-08-10T16:20:31.049Z,31.30
2022-08-10T16:23:00.873Z,31.40
2022-08-10T16:25:47.887Z,31.30
2022-08-10T16:28:20.164Z,31.20
2022-08-10T16:30:54.542Z,31.30
2022-08-10T16:33:28.060Z,31.30
2022-08-10T16:36:14.822Z,31.00
2022-08-10T16:38:45.503Z,31.10
2022-08-10T16:42:00.675Z,30.80
2022-08-10T16:43:59.875Z,30.80
2022-08-10T16:46:26.995Z,30.70
2022-08-10T16:48:54.093Z,30.70
2022-08-10T16:51:21.670Z,30.70
2022-08-10T16:53:49.499Z,30.60
2022-08-10T16:56:16.827Z,30.70
2022-08-10T16:58:44.716Z,30.10
2022-08-10T17:01:12.835Z,30.10
2022-08-10T17:04:06.365Z,30.00
2022-08-10T17:06:35.177Z,29.90
2022-08-10T17:09:03.525Z,29.90
2022-08-10T17:11:31.522Z,30.00
2022-08-10T17:13:59.104Z,30.30
2022-08-10T17:16:27.819Z,30.00
2022-08-10T17:18:54.913Z,30.00
2022-08-10T17:21:23.142Z,29.90
2022-08-10T17:23:51.181Z,29.90
2022-08-10T17:26:26.962Z,29.80
2022-08-10T17:29:09.557Z,29.90
2022-08-10T17:31:54.378Z,30.00
2022-08-10T17:34:31.810Z,29.80
2022-08-10T17:37:03.964Z,29.70
2022-08-10T17:39:37.173Z,29.90
2022-08-10T17:42:08.333Z,29.80
2022-08-10T17:44:36.033Z,30.10
2022-08-10T17:47:11.002Z,29.90
2022-08-10T17:49:38.742Z,29.40
2022-08-10T17:52:07.636Z,29.50
2022-08-10T17:54:36.103Z,29.60
2022-08-10T17:57:08.388Z,29.10
2022-08-10T17:59:36.398Z,29.10
2022-08-10T18:02:05.589Z,29.20
2022-08-10T18:04:41.563Z,29.20
2022-08-10T18:07:11.916Z,29.10
2022-08-10T18:09:40.147Z,29.20
2022-08-10T18:12:17.868Z,28.90
2022-08-10T18:14:46.952Z,28.90
2022-08-10T18:17:15.249Z,28.70
2022-08-10T18:19:43.692Z,28.90
2022-08-10T18:22:11.817Z,28.90
2022-08-10T18:24:38.982Z,28.80
2022-08-10T18:27:06.512Z,28.70
2022-08-10T18:29:34.850Z,28.80
2022-08-10T18:32:02.941Z,28.90
2022-08-10T18:34:30.937Z,28.80
2022-08-10T18:36:58.187Z,28.80
2022-08-10T18:39:27.352Z,28.50
2022-08-10T18:42:06.238Z,28.70
2022-08-10T18:44:37.345Z,28.30
2022-08-10T18:47:06.705Z,28.40
2022-08-10T18:49:40.165Z,28.50
2022-08-10T18:52:08.945Z,28.40
2022-08-10T18:54:45.861Z,28.50
2022-08-10T18:57:18.259Z,28.20
2022-08-10T19:00:07.538Z,28.50
2022-08-10T19:02:39.889Z,28.30
2022-08-10T19:05:31.635Z,28.10
2022-08-10T19:08:05.198Z,28.10
2022-08-10T19:10:47.265Z,28.10
2022-08-10T19:13:26.580Z,28.10
2022-08-10T19:15:56.682Z,28.00
2022-08-10T19:18:34.351Z,27.80
2022-08-10T19:21:07.938Z,27.70
2022-08-10T19:23:38.059Z,27.80
2022-08-10T19:26:42.130Z,27.70
2022-08-10T19:30:08.677Z,27.70
2022-08-10T19:32:19.324Z,27.70
2022-08-10T19:34:56.611Z,27.80
2022-08-10T19:37:32.412Z,27.70
2022-08-10T19:40:21.654Z,27.50
2022-08-10T19:43:10.334Z,27.40
2022-08-10T19:45:56.244Z,27.40
2022-08-10T19:48:29.290Z,27.40
2022-08-10T19:50:58.170Z,27.20
2022-08-10T19:53:31.841Z,27.20
2022-08-10T19:56:33.702Z,27.20
2022-08-10T20:00:17.099Z,27.20
2022-08-10T20:02:11.538Z,26.80
2022-08-10T20:04:44.254Z,26.80
2022-08-10T20:07:18.992Z,26.90
2022-08-10T20:09:47.191Z,26.80
2022-08-10T20:12:19.365Z,26.70
2022-08-10T20:14:48.307Z,26.70
2022-08-10T20:17:16.583Z,26.90
2022-08-10T20:20:10.071Z,26.60
2022-08-10T20:22:39.157Z,26.90
2022-08-10T20:25:14.338Z,26.70
2022-08-10T20:28:00.236Z,26.60
2022-08-10T20:30:33.664Z,26.70
2022-08-10T20:33:24.170Z,26.70
2022-08-10T20:35:58.619Z,26.30
2022-08-10T20:38:34.909Z,26.70
2022-08-10T20:41:11.200Z,26.30
2022-08-10T20:43:45.528Z,26.70
2022-08-10T20:46:24.323Z,26.70
2022-08-10T20:49:18.733Z,26.50
2022-08-10T20:51:57.360Z,26.70
2022-08-10T20:54:32.979Z,26.70
2022-08-10T20:57:55.648Z,26.70
2022-08-10T21:00:11.077Z,26.40
2022-08-10T21:03:00.185Z,26.30
2022-08-10T21:05:48.096Z,26.30
2022-08-10T21:08:17.598Z,26.00
2022-08-10T21:10:59.981Z,26.10
2022-08-10T21:13:30.073Z,25.90
2022-08-10T21:16:07.557Z,25.70
2022-08-10T21:18:47.448Z,25.90
2022-08-10T21:21:37.721Z,26.20
2022-08-10T21:24:10.798Z,26.10
2022-08-10T21:26:46.500Z,26.00
2022-08-10T21:29:21.763Z,25.60
2022-08-10T21:32:03.743Z,25.80
2022-08-10T21:34:53.038Z,25.80
2022-08-10T21:37:40.094Z,25.80
2022-08-10T21:40:32.399Z,25.70
2022-08-10T21:43:44.051Z,25.70
2022-08-10T21:46:55.101Z,25.60
2022-08-10T21:49:52.755Z,25.60
2022-08-10T21:52:53.822Z,25.50
2022-08-10T21:55:58.678Z,26.00
2022-08-10T21:59:06.933Z,25.80
2022-08-10T22:02:19.370Z,25.60
2022-08-10T22:05:23.395Z,25.40
2022-08-10T22:08:57.412Z,25.50
2022-08-10T22:12:01.466Z,25.60
2022-08-10T22:16:10.819Z,25.40
2022-08-10T22:22:34.414Z,25.50
2022-08-10T22:26:15.507Z,25.40
2022-08-10T22:33:08.421Z,25.80
2022-08-10T22:36:00.155Z,25.40
2022-08-10T22:38:45.710Z,25.80
2022-08-10T22:41:40.998Z,25.50
2022-08-10T22:44:26.887Z,25.50
2022-08-10T22:47:12.707Z,25.30
2022-08-10T22:49:39.766Z,25.00
2022-08-10T22:52:30.385Z,25.00
2022-08-10T22:58:46.994Z,25.10
2022-08-10T23:01:40.782Z,24.80
2022-08-10T23:04:11.570Z,24.80
2022-08-10T23:06:39.166Z,24.60
2022-08-10T23:09:06.775Z,24.80
2022-08-10T23:11:38.423Z,24.70
2022-08-10T23:14:06.527Z,24.60
2022-08-10T23:17:02.106Z,24.90
2022-08-10T23:19:29.942Z,25.10
2022-08-10T23:22:06.044Z,25.10
2022-08-10T23:24:38.473Z,24.90
2022-08-10T23:27:12.143Z,25.20
2022-08-10T23:30:03.542Z,25.00
2022-08-10T23:32:32.434Z,24.80
2022-08-10T23:36:29.521Z,24.40
2022-08-10T23:37:47.550Z,24.60
2022-08-10T23:40:15.511Z,24.80
2022-08-10T23:42:43.507Z,24.80
2022-08-10T23:45:23.646Z,24.70
2022-08-10T23:47:51.647Z,24.80
2022-08-10T23:50:18.903Z,24.40
2022-08-10T23:52:50.242Z,24.10
2022-08-10T23:55:25.008Z,24.10
2022-08-10T23:57:53.178Z,24.40
